createdAt,value
2023-02-19T00:00:54.908Z,79.98
2023-02-19T00:01:54.916Z,79.99
2023-02-19T00:02:54.883Z,80.01
2023-02-19T00:03:54.881Z,80.06
2023-02-19T00:04:54.884Z,80.06
2023-02-19T00:05:54.871Z,80.08
2023-02-19T00:06:54.873Z,80.15
2023-02-19T00:07:54.831Z,80.17
2023-02-19T00:08:54.843Z,80.21
2023-02-19T00:09:54.806Z,80.23
2023-02-19T00:10:54.803Z,80.36
2023-02-19T00:11:54.793Z,80.46
2023-02-19T00:12:54.811Z,80.54
2023-02-19T00:13:54.772Z,80.62
2023-02-19T00:14:54.753Z,80.66
2023-02-19T00:15:54.758Z,80.75
2023-02-19T00:16:54.742Z,80.82
2023-02-19T00:18:05.629Z,80.84
2023-02-19T00:18:56.331Z,80.87
2023-02-19T00:19:57.549Z,80.92
2023-02-19T00:20:54.691Z,80.98
2023-02-19T00:21:54.696Z,81.09
2023-02-19T00:22:54.701Z,81.24
2023-02-19T00:23:54.660Z,81.34
2023-02-19T00:24:54.640Z,81.48
2023-02-19T00:25:54.888Z,81.57
2023-02-19T00:26:54.640Z,81.64
2023-02-19T00:27:54.638Z,81.75
2023-02-19T00:28:54.621Z,81.90
2023-02-19T00:29:54.601Z,82.02
2023-02-19T00:30:54.605Z,82.14
2023-02-19T00:31:54.720Z,82.24
2023-02-19T00:32:54.559Z,82.29
2023-02-19T00:33:54.544Z,82.42
2023-02-19T00:34:54.556Z,82.59
2023-02-19T00:35:54.524Z,82.79
2023-02-19T00:36:54.517Z,82.99
2023-02-19T00:37:54.512Z,83.19
2023-02-19T00:38:54.515Z,83.30
2023-02-19T00:39:54.500Z,83.47
2023-02-19T00:40:54.474Z,83.68
2023-02-19T00:41:54.471Z,83.93
2023-02-19T00:42:54.446Z,84.20
2023-02-19T00:43:54.475Z,84.44
2023-02-19T00:44:54.428Z,84.67
2023-02-19T00:45:54.424Z,84.87
2023-02-19T00:46:54.448Z,85.05
2023-02-19T00:47:54.393Z,85.20
2023-02-19T00:48:54.398Z,85.33
2023-02-19T00:49:54.388Z,85.53
2023-02-19T00:50:54.361Z,85.68
2023-02-19T00:51:54.386Z,85.77
2023-02-19T00:52:54.358Z,85.82
2023-02-19T00:53:54.335Z,85.92
2023-02-19T00:54:54.332Z,85.95
2023-02-19T00:55:54.309Z,86.00
2023-02-19T00:56:54.327Z,86.03
2023-02-19T00:57:54.288Z,86.10
2023-02-19T00:58:54.296Z,86.23
2023-02-19T00:59:58.726Z,86.28
2023-02-19T01:00:54.262Z,86.30
2023-02-19T01:01:54.395Z,86.33
2023-02-19T01:02:54.238Z,86.36
2023-02-19T01:03:54.237Z,86.34
2023-02-19T01:04:55.705Z,86.32
2023-02-19T01:05:54.192Z,86.34
2023-02-19T01:06:56.836Z,86.29
2023-02-19T01:07:54.194Z,86.29
2023-02-19T01:08:55.388Z,86.35
2023-02-19T01:09:54.158Z,86.45
2023-02-19T01:11:03.099Z,86.52
2023-02-19T01:11:54.156Z,86.54
2023-02-19T01:12:54.141Z,86.50
2023-02-19T01:13:54.111Z,86.50
2023-02-19T01:14:54.107Z,86.56
2023-02-19T01:15:54.108Z,86.66
2023-02-19T01:16:54.103Z,86.76
2023-02-19T01:17:54.722Z,86.90
2023-02-19T01:18:56.849Z,87.02
2023-02-19T01:19:54.048Z,87.06
2023-02-19T01:20:55.905Z,87.08
2023-02-19T01:21:54.677Z,87.14
2023-02-19T01:22:54.011Z,87.16
2023-02-19T01:23:54.045Z,87.12
2023-02-19T01:24:53.984Z,87.06
2023-02-19T01:25:53.995Z,86.98
2023-02-19T01:26:53.955Z,86.91
2023-02-19T01:27:53.956Z,86.87
2023-02-19T01:28:53.944Z,86.85
2023-02-19T01:29:53.926Z,86.80
2023-02-19T01:30:53.993Z,86.76
2023-02-19T01:31:53.958Z,86.72
2023-02-19T01:32:53.896Z,86.65
2023-02-19T01:33:53.886Z,86.53
2023-02-19T01:34:53.878Z,86.44
2023-02-19T01:35:53.917Z,86.35
2023-02-19T01:36:53.860Z,86.26
2023-02-19T01:37:53.858Z,86.16
2023-02-19T01:38:53.845Z,86.10
2023-02-19T01:39:53.831Z,86.03
2023-02-19T01:40:53.835Z,85.92
2023-02-19T01:41:53.799Z,85.87
2023-02-19T01:42:53.801Z,85.89
2023-02-19T01:43:53.814Z,85.87
2023-02-19T01:44:53.766Z,85.87
2023-02-19T01:45:53.758Z,85.80
2023-02-19T01:46:53.776Z,85.81
2023-02-19T01:47:53.742Z,85.82
2023-02-19T01:48:53.741Z,85.77
2023-02-19T01:49:53.712Z,85.71
2023-02-19T01:50:53.711Z,85.69
2023-02-19T01:51:53.698Z,85.83
2023-02-19T01:52:53.678Z,85.89
2023-02-19T01:53:53.681Z,85.91
2023-02-19T01:54:53.658Z,85.93
2023-02-19T01:55:53.692Z,85.99
2023-02-19T01:56:53.684Z,86.03
2023-02-19T01:57:53.622Z,86.06
2023-02-19T01:58:53.615Z,86.01
2023-02-19T01:59:53.602Z,85.96
2023-02-19T02:00:53.618Z,86.00
2023-02-19T02:01:53.609Z,85.98
2023-02-19T02:02:53.583Z,85.91
2023-02-19T02:03:53.579Z,85.87
2023-02-19T02:04:53.553Z,85.85
2023-02-19T02:05:53.567Z,85.86
2023-02-19T02:06:53.529Z,85.93
2023-02-19T02:07:53.515Z,85.94
2023-02-19T02:08:53.524Z,85.96
2023-02-19T02:09:53.498Z,85.91
2023-02-19T02:10:53.511Z,85.91
2023-02-19T02:11:53.468Z,85.92
2023-02-19T02:12:53.485Z,85.97
2023-02-19T02:13:53.469Z,86.00
2023-02-19T02:14:53.446Z,85.95
2023-02-19T02:15:53.436Z,85.94
2023-02-19T02:16:53.436Z,85.85
2023-02-19T02:17:53.439Z,85.77
2023-02-19T02:18:53.408Z,85.65
2023-02-19T02:19:53.385Z,85.62
2023-02-19T02:20:54.360Z,85.60
2023-02-19T02:21:53.359Z,85.60
2023-02-19T02:22:53.375Z,85.63
2023-02-19T02:23:53.350Z,85.68
2023-02-19T02:24:53.337Z,85.76
2023-02-19T02:25:53.339Z,85.83
2023-02-19T02:26:53.341Z,85.88
2023-02-19T02:27:53.299Z,85.90
2023-02-19T02:28:53.296Z,85.87
2023-02-19T02:29:53.300Z,85.89
2023-02-19T02:30:53.304Z,85.81
2023-02-19T02:31:53.329Z,85.78
2023-02-19T02:32:53.266Z,85.76
2023-02-19T02:33:53.233Z,85.76
2023-02-19T02:34:53.230Z,85.75
2023-02-19T02:35:53.212Z,85.74
2023-02-19T02:36:53.222Z,85.75
2023-02-19T02:37:53.207Z,85.56
2023-02-19T02:38:53.180Z,85.47
2023-02-19T02:39:53.170Z,85.37
2023-02-19T02:40:53.162Z,85.34
2023-02-19T02:41:53.158Z,85.28
2023-02-19T02:42:53.152Z,85.23
2023-02-19T02:43:53.126Z,85.21
2023-02-19T02:44:53.117Z,85.18
2023-02-19T02:45:53.124Z,85.13
2023-02-19T02:46:53.094Z,85.13
2023-02-19T02:47:53.098Z,85.14
2023-02-19T02:48:53.079Z,85.12
2023-02-19T02:49:53.116Z,85.08
2023-02-19T02:50:53.059Z,85.02
2023-02-19T02:51:53.032Z,85.00
2023-02-19T02:52:53.058Z,84.96
2023-02-19T02:53:53.030Z,84.92
2023-02-19T02:54:53.008Z,84.93
2023-02-19T02:55:53.002Z,84.94
2023-02-19T02:56:53.001Z,84.99
2023-02-19T02:57:52.969Z,85.00
2023-02-19T02:58:52.976Z,84.99
2023-02-19T02:59:52.979Z,84.97
2023-02-19T03:00:52.971Z,84.92
2023-02-19T03:01:52.955Z,84.93
2023-02-19T03:02:52.917Z,84.87
2023-02-19T03:03:52.934Z,84.75
2023-02-19T03:04:52.895Z,84.68
2023-02-19T03:05:52.897Z,84.64
2023-02-19T03:06:52.877Z,84.63
2023-02-19T03:07:52.864Z,84.57
2023-02-19T03:08:52.873Z,84.61
2023-02-19T03:09:52.848Z,84.56
2023-02-19T03:10:52.832Z,84.46
2023-02-19T03:11:52.811Z,84.41
2023-02-19T03:12:52.820Z,84.36
2023-02-19T03:13:52.822Z,84.40
2023-02-19T03:14:52.814Z,84.46
2023-02-19T03:15:52.786Z,84.46
2023-02-19T03:16:52.876Z,84.46
2023-02-19T03:17:52.750Z,84.46
2023-02-19T03:18:52.761Z,84.46
2023-02-19T03:19:52.755Z,84.49
2023-02-19T03:20:52.725Z,84.52
2023-02-19T03:21:52.705Z,84.52
2023-02-19T03:22:52.700Z,84.52
2023-02-19T03:23:52.687Z,84.55
2023-02-19T03:24:52.694Z,84.59
2023-02-19T03:25:52.672Z,84.66
2023-02-19T03:26:52.654Z,84.73
2023-02-19T03:27:52.634Z,84.72
2023-02-19T03:28:52.638Z,84.72
2023-02-19T03:29:52.635Z,84.72
2023-02-19T03:30:52.605Z,84.68
2023-02-19T03:31:52.715Z,84.60
2023-02-19T03:32:52.668Z,84.52
2023-02-19T03:33:52.591Z,84.47
2023-02-19T03:34:52.590Z,84.46
2023-02-19T03:35:52.594Z,84.44
2023-02-19T03:36:52.596Z,84.41
2023-02-19T03:37:52.549Z,84.41
2023-02-19T03:38:52.539Z,84.43
2023-02-19T03:39:52.508Z,84.40
2023-02-19T03:40:52.584Z,84.35
2023-02-19T03:41:52.486Z,84.27
2023-02-19T03:42:54.953Z,84.25
2023-02-19T03:43:52.480Z,84.16
2023-02-19T03:44:52.500Z,83.91
2023-02-19T03:45:52.506Z,83.84
2023-02-19T03:46:52.444Z,83.73
2023-02-19T03:47:52.419Z,83.67
2023-02-19T03:48:52.441Z,83.58
2023-02-19T03:49:52.405Z,83.57
2023-02-19T03:50:52.408Z,83.54
2023-02-19T03:51:52.448Z,83.49
2023-02-19T03:52:52.372Z,83.47
2023-02-19T03:53:52.361Z,83.31
2023-02-19T03:54:52.400Z,83.20
2023-02-19T03:55:52.368Z,83.22
2023-02-19T03:56:52.400Z,83.21
2023-02-19T03:57:52.338Z,83.19
2023-02-19T03:58:52.327Z,83.16
2023-02-19T03:59:52.314Z,83.17
2023-02-19T04:00:52.301Z,83.18
2023-02-19T04:01:52.332Z,83.15
2023-02-19T04:02:52.268Z,83.13
2023-02-19T04:03:52.350Z,83.13
2023-02-19T04:04:52.304Z,82.98
2023-02-19T04:05:52.240Z,82.94
2023-02-19T04:06:52.258Z,82.96
2023-02-19T04:07:52.214Z,82.89
2023-02-19T04:08:52.207Z,82.89
2023-02-19T04:09:52.182Z,82.85
2023-02-19T04:10:52.182Z,82.70
2023-02-19T04:11:52.183Z,82.69
2023-02-19T04:12:52.166Z,82.70
2023-02-19T04:13:52.150Z,82.66
2023-02-19T04:14:52.139Z,82.64
2023-02-19T04:15:52.132Z,82.57
2023-02-19T04:16:52.255Z,82.59
2023-02-19T04:17:52.116Z,82.57
2023-02-19T04:18:52.089Z,82.56
2023-02-19T04:19:52.091Z,82.60
2023-02-19T04:20:52.098Z,82.53
2023-02-19T04:21:52.105Z,82.53
2023-02-19T04:22:52.058Z,82.56
2023-02-19T04:23:52.063Z,82.67
2023-02-19T04:24:52.041Z,82.68
2023-02-19T04:25:52.030Z,82.63
2023-02-19T04:26:52.028Z,82.69
2023-02-19T04:27:51.997Z,82.74
2023-02-19T04:28:52.004Z,82.85
2023-02-19T04:29:51.977Z,82.92
2023-02-19T04:30:51.996Z,83.00
2023-02-19T04:31:51.991Z,83.00
2023-02-19T04:32:52.010Z,83.01
2023-02-19T04:33:51.942Z,83.07
2023-02-19T04:34:54.262Z,83.13
2023-02-19T04:35:51.894Z,83.18
2023-02-19T04:36:51.916Z,83.15
2023-02-19T04:37:51.878Z,83.24
2023-02-19T04:38:51.877Z,83.42
2023-02-19T04:39:51.868Z,83.51
2023-02-19T04:40:51.849Z,83.62
2023-02-19T04:41:51.830Z,83.73
2023-02-19T04:42:51.842Z,83.91
2023-02-19T04:43:51.835Z,84.09
2023-02-19T04:44:51.802Z,84.25
2023-02-19T04:45:51.794Z,84.40
2023-02-19T04:46:51.773Z,84.49
2023-02-19T04:47:51.770Z,84.62
2023-02-19T04:48:51.749Z,84.74
2023-02-19T04:49:51.753Z,84.79
2023-02-19T04:50:51.745Z,84.81
2023-02-19T04:51:51.729Z,84.82
2023-02-19T04:52:51.729Z,84.82
2023-02-19T04:53:51.706Z,84.91
2023-02-19T04:54:51.699Z,84.91
2023-02-19T04:55:51.712Z,84.90
2023-02-19T04:56:51.722Z,84.94
2023-02-19T04:57:51.717Z,85.06
2023-02-19T04:58:51.699Z,85.12
2023-02-19T04:59:51.731Z,85.24
2023-02-19T05:00:51.625Z,85.24
2023-02-19T05:01:51.752Z,85.30
2023-02-19T05:02:51.624Z,85.28
2023-02-19T05:03:51.646Z,85.23
2023-02-19T05:04:51.577Z,85.25
2023-02-19T05:05:51.583Z,85.34
2023-02-19T05:06:51.608Z,85.34
2023-02-19T05:07:51.556Z,85.25
2023-02-19T05:08:51.559Z,85.12
2023-02-19T05:09:51.527Z,85.09
2023-02-19T05:10:51.527Z,85.02
2023-02-19T05:11:51.521Z,85.00
2023-02-19T05:12:51.518Z,84.96
2023-02-19T05:13:51.597Z,84.90
2023-02-19T05:14:51.474Z,84.97
2023-02-19T05:15:51.562Z,85.07
2023-02-19T05:16:51.456Z,85.18
2023-02-19T05:17:51.451Z,85.31
2023-02-19T05:18:51.491Z,85.46
2023-02-19T05:19:51.456Z,85.63
2023-02-19T05:20:51.452Z,85.82
2023-02-19T05:21:51.388Z,85.97
2023-02-19T05:22:59.129Z,85.85
2023-02-19T05:23:51.373Z,85.60
2023-02-19T05:24:51.364Z,85.52
2023-02-19T05:25:51.348Z,85.53
2023-02-19T05:26:51.356Z,85.61
2023-02-19T05:27:51.324Z,85.70
2023-02-19T05:28:51.334Z,85.80
2023-02-19T05:29:51.306Z,85.85
2023-02-19T05:30:51.329Z,85.78
2023-02-19T05:31:51.420Z,85.71
2023-02-19T05:32:51.267Z,85.66
2023-02-19T05:33:51.512Z,85.60
2023-02-19T05:34:51.255Z,85.44
2023-02-19T05:35:51.237Z,85.21
2023-02-19T05:36:51.226Z,84.96
2023-02-19T05:37:51.233Z,84.72
2023-02-19T05:38:51.208Z,84.48
2023-02-19T05:39:51.192Z,84.37
2023-02-19T05:40:51.188Z,84.33
2023-02-19T05:41:51.174Z,84.24
2023-02-19T05:42:51.185Z,83.99
2023-02-19T05:43:51.160Z,83.84
2023-02-19T05:44:51.143Z,83.75
2023-02-19T05:45:51.130Z,83.74
2023-02-19T05:46:51.116Z,83.64
2023-02-19T05:47:51.128Z,83.61
2023-02-19T05:48:51.095Z,83.65
2023-02-19T05:49:51.083Z,83.70
2023-02-19T05:50:51.094Z,83.78
2023-02-19T05:51:51.072Z,83.78
2023-02-19T05:52:51.075Z,83.76
2023-02-19T05:53:51.036Z,83.88
2023-02-19T05:54:51.024Z,83.91
2023-02-19T05:55:51.016Z,84.00
2023-02-19T05:56:51.012Z,84.09
2023-02-19T05:57:51.022Z,84.13
2023-02-19T05:58:50.986Z,84.17
2023-02-19T05:59:50.990Z,84.27
2023-02-19T06:00:50.961Z,84.34
2023-02-19T06:01:50.962Z,84.39
2023-02-19T06:02:50.953Z,84.38
2023-02-19T06:03:51.023Z,84.35
2023-02-19T06:04:50.924Z,84.38
2023-02-19T06:05:50.921Z,84.32
2023-02-19T06:06:50.924Z,84.32
2023-02-19T06:07:50.884Z,84.25
2023-02-19T06:08:50.890Z,84.17
2023-02-19T06:09:50.878Z,84.15
2023-02-19T06:10:50.856Z,84.13
2023-02-19T06:11:50.841Z,84.16
2023-02-19T06:12:50.899Z,84.21
2023-02-19T06:13:50.846Z,84.22
2023-02-19T06:14:50.821Z,84.28
2023-02-19T06:15:50.840Z,84.33
2023-02-19T06:16:50.786Z,84.37
2023-02-19T06:17:50.781Z,84.42
2023-02-19T06:18:50.889Z,84.51
2023-02-19T06:19:50.764Z,84.65
2023-02-19T06:20:50.772Z,84.83
2023-02-19T06:21:50.743Z,85.03
2023-02-19T06:22:50.724Z,85.15
2023-02-19T06:23:50.717Z,85.23
2023-02-19T06:24:50.853Z,85.30
2023-02-19T06:25:50.700Z,85.25
2023-02-19T06:26:50.694Z,85.24
2023-02-19T06:27:50.674Z,85.17
2023-02-19T06:28:50.737Z,85.10
2023-02-19T06:29:50.685Z,85.02
2023-02-19T06:30:51.585Z,84.90
2023-02-19T06:31:50.693Z,84.81
2023-02-19T06:32:50.618Z,84.86
2023-02-19T06:33:50.846Z,84.79
2023-02-19T06:34:50.609Z,84.70
2023-02-19T06:35:50.588Z,84.55
2023-02-19T06:36:50.579Z,84.50
2023-02-19T06:37:50.576Z,84.47
2023-02-19T06:38:50.555Z,84.42
2023-02-19T06:39:50.559Z,84.34
2023-02-19T06:40:50.540Z,84.18
2023-02-19T06:41:50.523Z,83.97
2023-02-19T06:42:50.516Z,83.80
2023-02-19T06:43:50.504Z,83.64
2023-02-19T06:44:50.505Z,83.49
2023-02-19T06:45:50.487Z,83.43
2023-02-19T06:46:50.475Z,83.41
2023-02-19T06:47:50.456Z,83.33
2023-02-19T06:48:50.458Z,83.29
2023-02-19T06:49:50.467Z,83.27
2023-02-19T06:50:50.447Z,83.29
2023-02-19T06:51:50.430Z,83.27
2023-02-19T06:52:50.412Z,83.26
2023-02-19T06:53:50.390Z,83.26
2023-02-19T06:54:50.432Z,83.31
2023-02-19T06:55:50.433Z,83.33
2023-02-19T06:56:50.370Z,83.32
2023-02-19T06:57:50.464Z,83.31
2023-02-19T06:58:50.337Z,83.38
2023-02-19T06:59:50.402Z,83.42
2023-02-19T07:00:50.329Z,83.43
2023-02-19T07:01:50.311Z,83.43
2023-02-19T07:02:50.295Z,83.36
2023-02-19T07:03:50.435Z,83.35
2023-02-19T07:04:50.308Z,83.40
2023-02-19T07:05:50.263Z,83.41
2023-02-19T07:06:50.257Z,83.39
2023-02-19T07:07:50.266Z,83.44
2023-02-19T07:08:50.230Z,83.46
2023-02-19T07:09:50.254Z,83.42
2023-02-19T07:10:50.226Z,83.41
2023-02-19T07:11:50.186Z,83.43
2023-02-19T07:12:50.184Z,83.46
2023-02-19T07:13:50.167Z,83.53
2023-02-19T07:14:50.210Z,83.59
2023-02-19T07:15:52.097Z,83.64
2023-02-19T07:16:50.135Z,83.71
2023-02-19T07:17:50.133Z,83.78
2023-02-19T07:18:50.111Z,83.89
2023-02-19T07:19:50.117Z,83.89
2023-02-19T07:20:50.095Z,83.98
2023-02-19T07:21:50.075Z,84.05
2023-02-19T07:22:50.072Z,84.10
2023-02-19T07:23:50.058Z,84.14
2023-02-19T07:24:50.068Z,84.13
2023-02-19T07:25:50.038Z,84.08
2023-02-19T07:26:50.030Z,84.07
2023-02-19T07:27:50.061Z,84.05
2023-02-19T07:28:50.017Z,84.07
2023-02-19T07:29:50.015Z,84.10
2023-02-19T07:30:50.003Z,83.86
2023-02-19T07:31:50.042Z,83.65
2023-02-19T07:32:49.962Z,83.39
2023-02-19T07:33:49.946Z,83.26
2023-02-19T07:34:49.948Z,83.21
2023-02-19T07:35:49.987Z,83.09
2023-02-19T07:36:49.922Z,82.94
2023-02-19T07:37:49.998Z,82.85
2023-02-19T07:38:49.898Z,82.84
2023-02-19T07:39:49.893Z,82.83
2023-02-19T07:40:49.881Z,82.77
2023-02-19T07:41:49.873Z,82.78
2023-02-19T07:42:49.849Z,82.96
2023-02-19T07:43:49.933Z,83.12
2023-02-19T07:44:49.842Z,83.06
2023-02-19T07:45:49.869Z,82.73
2023-02-19T07:46:49.834Z,82.45
2023-02-19T07:47:49.798Z,82.44
2023-02-19T07:48:49.794Z,82.31
2023-02-19T07:49:49.855Z,82.23
2023-02-19T07:50:49.784Z,82.10
2023-02-19T07:51:49.755Z,81.76
2023-02-19T07:52:49.744Z,81.69
2023-02-19T07:53:49.756Z,81.99
2023-02-19T07:54:49.726Z,82.12
2023-02-19T07:55:49.745Z,82.17
2023-02-19T07:56:49.847Z,82.04
2023-02-19T07:57:49.703Z,81.89
2023-02-19T07:58:49.719Z,81.97
2023-02-19T07:59:49.672Z,82.03
2023-02-19T08:00:49.678Z,82.07
2023-02-19T08:01:49.662Z,82.18
2023-02-19T08:02:49.673Z,82.19
2023-02-19T08:03:50.592Z,81.88
2023-02-19T08:04:49.623Z,81.94
2023-02-19T08:05:49.603Z,81.99
2023-02-19T08:06:49.621Z,81.90
2023-02-19T08:07:49.601Z,82.06
2023-02-19T08:08:49.673Z,82.14
2023-02-19T08:09:49.566Z,81.96
2023-02-19T08:10:49.611Z,82.02
2023-02-19T08:11:49.565Z,82.10
2023-02-19T08:12:49.541Z,81.97
2023-02-19T08:13:49.541Z,82.05
2023-02-19T08:14:49.584Z,81.91
2023-02-19T08:15:49.510Z,81.84
2023-02-19T08:16:49.508Z,81.89
2023-02-19T08:17:49.469Z,81.95
2023-02-19T08:18:49.547Z,82.07
2023-02-19T08:19:49.472Z,82.05
2023-02-19T08:20:49.440Z,82.08
2023-02-19T08:21:49.448Z,82.12
2023-02-19T08:22:49.413Z,82.15
2023-02-19T08:23:51.171Z,81.98
2023-02-19T08:24:49.436Z,81.89
2023-02-19T08:25:49.485Z,81.77
2023-02-19T08:26:49.376Z,81.79
2023-02-19T08:27:49.373Z,81.81
2023-02-19T08:28:49.356Z,81.79
2023-02-19T08:29:49.438Z,81.65
2023-02-19T08:30:49.438Z,81.47
2023-02-19T08:31:49.619Z,81.30
2023-02-19T08:32:49.314Z,81.28
2023-02-19T08:33:49.304Z,81.39
2023-02-19T08:34:49.289Z,81.35
2023-02-19T08:35:49.281Z,81.41
2023-02-19T08:36:49.279Z,81.48
2023-02-19T08:37:49.264Z,81.42
2023-02-19T08:38:49.246Z,81.55
2023-02-19T08:39:49.230Z,81.51
2023-02-19T08:40:49.235Z,81.49
2023-02-19T08:41:49.226Z,81.56
2023-02-19T08:42:49.202Z,81.46
2023-02-19T08:43:49.216Z,81.45
2023-02-19T08:44:49.174Z,81.54
2023-02-19T08:45:49.301Z,81.61
2023-02-19T08:46:49.149Z,81.64
2023-02-19T08:47:49.202Z,81.55
2023-02-19T08:48:49.166Z,81.28
2023-02-19T08:49:49.150Z,81.31
2023-02-19T08:50:49.110Z,81.35
2023-02-19T08:51:49.161Z,81.19
2023-02-19T08:52:49.088Z,81.07
2023-02-19T08:53:49.125Z,80.97
2023-02-19T08:54:49.080Z,80.86
2023-02-19T08:55:49.073Z,80.93
2023-02-19T08:56:49.041Z,80.95
2023-02-19T08:57:50.609Z,80.98
2023-02-19T08:58:49.111Z,81.19
2023-02-19T08:59:49.026Z,81.16
2023-02-19T09:00:49.002Z,81.29
2023-02-19T09:01:48.996Z,81.39
2023-02-19T09:02:49.057Z,81.50
2023-02-19T09:03:48.973Z,81.54
2023-02-19T09:04:48.973Z,81.49
2023-02-19T09:05:48.944Z,81.46
2023-02-19T09:06:48.947Z,81.48
2023-02-19T09:07:49.033Z,81.38
2023-02-19T09:08:48.913Z,81.34
2023-02-19T09:09:48.921Z,81.27
2023-02-19T09:10:48.885Z,81.08
2023-02-19T09:11:49.368Z,81.18
2023-02-19T09:12:48.881Z,81.27
2023-02-19T09:13:48.894Z,81.48
2023-02-19T09:14:48.871Z,81.60
2023-02-19T09:15:48.870Z,81.69
2023-02-19T09:16:48.873Z,81.55
2023-02-19T09:17:48.830Z,81.35
2023-02-19T09:18:48.807Z,81.04
2023-02-19T09:19:50.793Z,80.85
2023-02-19T09:20:48.788Z,80.62
2023-02-19T09:21:48.796Z,80.62
2023-02-19T09:22:48.793Z,80.62
2023-02-19T09:23:48.764Z,80.57
2023-02-19T09:24:48.760Z,80.48
2023-02-19T09:25:48.777Z,80.45
2023-02-19T09:26:48.713Z,80.50
2023-02-19T09:27:48.734Z,80.27
2023-02-19T09:28:48.712Z,80.38
2023-02-19T09:29:48.718Z,80.55
2023-02-19T09:30:48.729Z,80.67
2023-02-19T09:31:48.809Z,80.62
2023-02-19T09:32:48.705Z,80.57
2023-02-19T09:33:48.667Z,80.66
2023-02-19T09:34:48.643Z,80.50
2023-02-19T09:35:48.661Z,80.47
2023-02-19T09:36:48.610Z,80.60
2023-02-19T09:37:48.606Z,80.60
2023-02-19T09:38:48.614Z,80.64
2023-02-19T09:39:48.665Z,80.84
2023-02-19T09:40:48.599Z,80.84
2023-02-19T09:41:48.553Z,81.04
2023-02-19T09:42:48.543Z,81.28
2023-02-19T09:43:48.599Z,81.28
2023-02-19T09:44:48.540Z,81.43
2023-02-19T09:45:48.520Z,81.56
2023-02-19T09:46:48.504Z,81.40
2023-02-19T09:47:48.534Z,80.89
2023-02-19T09:48:48.511Z,80.65
2023-02-19T09:49:48.496Z,80.53
2023-02-19T09:50:48.519Z,80.31
2023-02-19T09:51:48.470Z,80.22
2023-02-19T09:52:48.451Z,80.38
2023-02-19T09:53:48.421Z,80.36
2023-02-19T09:54:48.433Z,80.18
2023-02-19T09:55:48.449Z,80.34
2023-02-19T09:56:48.433Z,80.56
2023-02-19T09:57:48.383Z,80.87
2023-02-19T09:58:48.380Z,80.95
2023-02-19T09:59:48.368Z,80.66
2023-02-19T10:00:48.463Z,80.73
2023-02-19T10:01:48.387Z,80.92
2023-02-19T10:02:48.339Z,80.88
2023-02-19T10:03:48.354Z,80.69
2023-02-19T10:04:48.317Z,80.56
2023-02-19T10:05:48.322Z,80.48
2023-02-19T10:06:48.289Z,80.30
2023-02-19T10:07:48.262Z,79.81
2023-02-19T10:08:48.274Z,79.70
2023-02-19T10:09:48.247Z,79.66
2023-02-19T10:10:48.252Z,79.68
2023-02-19T10:11:48.242Z,79.70
2023-02-19T10:12:48.205Z,79.54
2023-02-19T10:13:48.211Z,79.64
2023-02-19T10:14:48.198Z,79.84
2023-02-19T10:15:48.230Z,79.81
2023-02-19T10:16:48.177Z,79.80
2023-02-19T10:17:48.149Z,79.82
2023-02-19T10:18:48.150Z,79.82
2023-02-19T10:19:48.165Z,79.88
2023-02-19T10:20:48.136Z,79.88
2023-02-19T10:21:48.116Z,79.84
2023-02-19T10:22:48.101Z,79.69
2023-02-19T10:23:48.088Z,79.50
2023-02-19T10:24:48.100Z,79.54
2023-02-19T10:25:48.080Z,79.48
2023-02-19T10:26:48.058Z,79.15
2023-02-19T10:27:48.045Z,79.04
2023-02-19T10:28:48.037Z,78.99
2023-02-19T10:29:48.040Z,78.95
2023-02-19T10:30:48.053Z,78.83
2023-02-19T10:31:48.104Z,78.85
2023-02-19T10:32:47.998Z,78.60
2023-02-19T10:33:47.981Z,78.67
2023-02-19T10:34:48.237Z,78.63
2023-02-19T10:35:47.975Z,78.55
2023-02-19T10:36:48.106Z,78.12
2023-02-19T10:37:47.951Z,77.90
2023-02-19T10:38:48.053Z,77.96
2023-02-19T10:39:47.943Z,78.22
2023-02-19T10:40:47.918Z,78.29
2023-02-19T10:41:47.920Z,78.02
2023-02-19T10:42:47.884Z,78.21
2023-02-19T10:43:47.876Z,78.43
2023-02-19T10:44:47.873Z,78.40
2023-02-19T10:45:47.898Z,78.39
2023-02-19T10:46:47.954Z,78.49
2023-02-19T10:47:47.834Z,78.62
2023-02-19T10:48:47.826Z,78.70
2023-02-19T10:49:47.807Z,78.42
2023-02-19T10:50:47.804Z,78.49
2023-02-19T10:51:47.793Z,78.43
2023-02-19T10:52:47.795Z,78.39
2023-02-19T10:53:47.800Z,78.32
2023-02-19T10:54:47.755Z,78.27
2023-02-19T10:55:47.754Z,78.17
2023-02-19T10:56:47.737Z,78.29
2023-02-19T10:57:47.720Z,78.38
2023-02-19T10:58:47.726Z,78.44
2023-02-19T10:59:47.789Z,78.38
2023-02-19T11:00:48.380Z,78.22
2023-02-19T11:01:47.709Z,77.98
2023-02-19T11:02:47.664Z,78.04
2023-02-19T11:03:47.663Z,78.13
2023-02-19T11:04:47.702Z,78.03
2023-02-19T11:05:47.640Z,77.79
2023-02-19T11:06:47.627Z,77.79
2023-02-19T11:07:47.623Z,77.63
2023-02-19T11:08:47.669Z,77.67
2023-02-19T11:09:47.592Z,77.71
2023-02-19T11:10:47.592Z,77.68
2023-02-19T11:11:47.570Z,77.42
2023-02-19T11:12:47.576Z,77.23
2023-02-19T11:13:47.569Z,77.21
2023-02-19T11:14:47.566Z,77.19
2023-02-19T11:15:47.570Z,77.17
2023-02-19T11:16:47.516Z,77.16
2023-02-19T11:17:47.520Z,77.30
2023-02-19T11:18:47.490Z,77.23
2023-02-19T11:19:47.477Z,77.15
2023-02-19T11:20:47.517Z,77.39
2023-02-19T11:21:47.464Z,77.47
2023-02-19T11:22:47.447Z,77.54
2023-02-19T11:23:47.441Z,77.65
2023-02-19T11:24:47.444Z,77.76
2023-02-19T11:25:47.431Z,77.73
2023-02-19T11:26:47.430Z,77.79
2023-02-19T11:27:47.395Z,77.84
2023-02-19T11:28:47.386Z,77.71
2023-02-19T11:29:47.371Z,77.71
2023-02-19T11:30:47.384Z,77.52
2023-02-19T11:31:47.564Z,76.90
2023-02-19T11:32:47.342Z,76.87
2023-02-19T11:33:47.334Z,76.88
2023-02-19T11:34:47.319Z,76.93
2023-02-19T11:35:47.316Z,76.88
2023-02-19T11:36:47.312Z,77.08
2023-02-19T11:37:47.286Z,77.19
2023-02-19T11:38:47.276Z,76.96
2023-02-19T11:39:47.292Z,77.04
2023-02-19T11:40:47.258Z,76.87
2023-02-19T11:41:47.253Z,76.79
2023-02-19T11:42:47.234Z,76.55
2023-02-19T11:43:47.235Z,76.22
2023-02-19T11:44:47.217Z,75.77
2023-02-19T11:45:47.205Z,75.02
2023-02-19T11:46:47.258Z,74.44
2023-02-19T11:47:47.184Z,74.47
2023-02-19T11:48:47.176Z,74.60
2023-02-19T11:49:47.174Z,74.52
2023-02-19T11:50:47.158Z,74.29
2023-02-19T11:51:52.156Z,74.04
2023-02-19T11:52:48.139Z,73.89
2023-02-19T11:53:49.597Z,73.39
2023-02-19T11:54:47.118Z,73.31
2023-02-19T11:55:47.108Z,73.55
2023-02-19T11:56:48.488Z,73.37
2023-02-19T11:57:47.648Z,73.44
2023-02-19T11:58:47.121Z,73.57
2023-02-19T11:59:47.103Z,73.43
2023-02-19T12:00:47.052Z,72.92
2023-02-19T12:01:47.048Z,72.85
2023-02-19T12:02:47.055Z,72.42
2023-02-19T12:03:47.020Z,72.36
2023-02-19T12:04:47.071Z,72.38
2023-02-19T12:05:46.984Z,72.39
2023-02-19T12:06:46.982Z,72.56
2023-02-19T12:07:46.966Z,72.47
2023-02-19T12:08:46.993Z,72.58
2023-02-19T12:09:46.961Z,72.29
2023-02-19T12:10:46.932Z,72.19
2023-02-19T12:11:46.984Z,72.11
2023-02-19T12:12:46.908Z,72.14
2023-02-19T12:13:46.912Z,71.85
2023-02-19T12:14:46.916Z,71.35
2023-02-19T12:15:46.895Z,70.94
2023-02-19T12:16:46.950Z,71.01
2023-02-19T12:17:46.868Z,71.20
2023-02-19T12:18:46.845Z,71.38
2023-02-19T12:19:46.838Z,71.01
2023-02-19T12:20:46.859Z,70.99
2023-02-19T12:21:46.819Z,71.14
2023-02-19T12:22:46.808Z,70.62
2023-02-19T12:23:46.810Z,70.71
2023-02-19T12:24:46.801Z,70.74
2023-02-19T12:25:46.832Z,70.86
2023-02-19T12:26:46.752Z,70.51
2023-02-19T12:27:46.766Z,70.76
2023-02-19T12:28:46.741Z,70.59
2023-02-19T12:29:46.729Z,70.28
2023-02-19T12:30:46.787Z,70.08
2023-02-19T12:31:46.716Z,69.97
2023-02-19T12:32:46.723Z,70.07
2023-02-19T12:33:46.686Z,70.18
2023-02-19T12:34:46.665Z,70.34
2023-02-19T12:35:46.765Z,70.32
2023-02-19T12:36:46.669Z,71.37
2023-02-19T12:37:46.638Z,72.58
2023-02-19T12:38:46.631Z,72.23
2023-02-19T12:39:46.632Z,71.47
2023-02-19T12:40:46.798Z,71.49
2023-02-19T12:41:46.595Z,72.15
2023-02-19T12:42:46.587Z,71.19
2023-02-19T12:43:46.686Z,70.97
2023-02-19T12:44:46.724Z,71.37
2023-02-19T12:45:46.777Z,71.58
2023-02-19T12:46:46.618Z,71.30
2023-02-19T12:47:46.537Z,70.99
2023-02-19T12:48:46.526Z,70.73
2023-02-19T12:49:47.234Z,70.96
2023-02-19T12:50:46.521Z,70.83
2023-02-19T12:51:46.487Z,70.37
2023-02-19T12:52:46.471Z,70.47